Time;durP1;ratioP1;P1;durP2;ratioP2;P2;SDS_P1;SDS_P2;PMS_P1;PMS_P2;Temp;Humidity;BMP_temperature;BMP_pressure;BME280_temperature;BME280_humidity;BME280_pressure;Samples;Min_cycle;Max_cycle;Signal;HPM_P1;HPM_P2
2022/11/22 00:00:59;;;;;;;1.13;1.13;;;0.80;99.90;;;;;;5111870;28;20122;-77
2022/11/22 00:03:25;;;;;;;0.40;0.40;;;0.80;99.90;;;;;;5110694;28;20621;-77
2022/11/22 00:05:50;;;;;;;0.40;0.40;;;2.00;99.90;;;;;;5111533;28;20023;-77
2022/11/22 00:08:16;;;;;;;0.40;0.40;;;1.10;99.90;;;;;;5110461;28;20037;-77
2022/11/22 00:10:42;;;;;;;0.40;0.40;;;0.70;99.90;;;;;;5111424;28;20498;-77
2022/11/22 00:13:08;;;;;;;0.40;0.40;;;0.70;99.90;;;;;;5112230;28;20445;-77
2022/11/22 00:15:33;;;;;;;0.30;0.30;;;0.60;99.90;;;;;;5111650;28;20031;-77
2022/11/22 00:17:59;;;;;;;0.47;0.47;;;0.50;99.90;;;;;;5112416;28;20046;-78
2022/11/22 00:20:25;;;;;;;0.40;0.40;;;0.50;99.90;;;;;;5110499;28;20050;-78
2022/11/22 00:22:51;;;;;;;0.40;0.40;;;0.50;99.90;;;;;;5110410;28;20538;-77
2022/11/22 00:25:16;;;;;;;0.40;0.40;;;0.50;99.90;;;;;;5111683;28;20115;-76
2022/11/22 00:27:42;;;;;;;0.40;0.40;;;;;;;;;;5111639;28;20439;-77
2022/11/22 00:30:09;;;;;;;0.40;0.40;;;0.50;99.90;;;;;;5111316;28;20131;-77
2022/11/22 00:32:34;;;;;;;0.40;0.40;;;0.60;99.90;;;;;;5110458;28;20042;-77
2022/11/22 00:35:00;;;;;;;0.40;0.40;;;;;;;;;;5110068;28;20483;-76
2022/11/22 00:37:26;;;;;;;0.43;0.43;;;0.50;99.90;;;;;;5109995;28;20362;-77
2022/11/22 00:39:52;;;;;;;0.40;0.40;;;0.50;99.90;;;;;;5111272;28;20042;-77
2022/11/22 00:42:17;;;;;;;0.40;0.40;;;0.50;99.90;;;;;;5110224;28;20482;-76
2022/11/22 00:44:43;;;;;;;0.40;0.40;;;0.40;99.90;;;;;;5111717;28;20118;-76
2022/11/22 00:47:08;;;;;;;0.40;0.40;;;0.30;99.90;;;;;;5110351;28;20042;-77
2022/11/22 00:49:34;;;;;;;0.40;0.40;;;0.30;99.90;;;;;;5111829;28;20097;-76
2022/11/22 00:51:59;;;;;;;0.40;0.40;;;0.20;99.90;;;;;;5109937;28;20081;-76
2022/11/22 00:54:25;;;;;;;0.40;0.40;;;0.20;99.90;;;;;;5111679;28;20024;-77
2022/11/22 00:56:51;;;;;;;0.40;0.40;;;0.20;99.90;;;;;;5110334;28;20024;-77
2022/11/22 00:59:16;;;;;;;0.40;0.40;;;0.20;99.90;;;;;;5111624;28;20106;-77
2022/11/22 01:01:44;;;;;;;0.40;0.40;;;0.20;99.90;;;;;;5110015;28;20073;-77
2022/11/22 01:04:10;;;;;;;0.50;0.50;;;1.80;99.90;;;;;;5111781;28;20419;-77
2022/11/22 01:06:36;;;;;;;0.40;0.40;;;2.30;99.90;;;;;;5110201;28;20097;-75
2022/11/22 01:09:01;;;;;;;0.40;0.40;;;0.20;99.90;;;;;;5111137;28;20053;-77
2022/11/22 01:11:27;;;;;;;0.40;0.40;;;0.10;99.90;;;;;;5111247;28;20072;-77
2022/11/22 01:13:53;;;;;;;0.43;0.43;;;0.10;99.90;;;;;;5111475;28;20043;-78
2022/11/22 01:16:18;;;;;;;0.40;0.40;;;;;;;;;;5111184;28;20039;-76
2022/11/22 01:18:44;;;;;;;0.50;0.50;;;;;;;;;;5110987;28;20032;-76
2022/11/22 01:21:10;;;;;;;0.40;0.40;;;0.00;99.90;;;;;;5111203;28;20115;-76
2022/11/22 01:23:38;;;;;;;0.40;0.40;;;0.00;99.90;;;;;;5112335;28;20028;-77
2022/11/22 01:26:07;;;;;;;0.55;0.55;;;0.00;99.90;;;;;;5113853;28;20035;-76
2022/11/22 01:28:33;;;;;;;0.40;0.40;;;0.00;99.90;;;;;;5114401;28;20039;-77
2022/11/22 01:30:58;;;;;;;0.40;0.40;;;0.00;99.90;;;;;;5113842;28;20463;-77
2022/11/22 01:33:24;;;;;;;0.40;0.40;;;0.00;99.90;;;;;;5115167;28;20031;-77
2022/11/22 01:35:49;;;;;;;0.50;0.50;;;0.00;99.90;;;;;;5114980;28;20058;-77
2022/11/22 01:38:15;;;;;;;0.40;0.40;;;-0.30;99.90;;;;;;5114917;28;20031;-77
2022/11/22 01:40:41;;;;;;;0.40;0.40;;;-0.10;99.90;;;;;;5113720;28;20474;-77
2022/11/22 01:43:23;;;;;;;0.50;0.50;;;-0.10;99.90;;;;;;5115678;28;20032;-77
2022/11/22 01:45:59;;;;;;;3.22;1.33;;;-0.10;99.90;;;;;;5113709;28;20475;-77
2022/11/22 01:48:47;;;;;;;0.30;0.30;;;-0.20;99.90;;;;;;5114788;28;20436;-77
2022/11/22 01:51:19;;;;;;;;;;;-0.20;99.90;;;;;;5115673;28;20062;-77
2022/11/22 01:53:45;;;;;;;0.40;0.40;;;-0.20;99.90;;;;;;5113332;28;19918;-78
2022/11/22 01:56:14;;;;;;;0.40;0.40;;;-0.30;99.90;;;;;;5114853;28;20027;-76
2022/11/22 01:58:43;;;;;;;0.50;0.50;;;-0.40;99.90;;;;;;5113422;28;20058;-77
2022/11/22 02:01:10;;;;;;;0.40;0.40;;;-0.30;99.90;;;;;;5114420;28;20020;-77
2022/11/22 02:03:37;;;;;;;0.50;0.50;;;-0.40;99.90;;;;;;5114621;28;20015;-77
2022/11/22 02:06:04;;;;;;;0.50;0.50;;;-0.30;99.90;;;;;;5114471;28;20035;-76
2022/11/22 02:08:55;;;;;;;4.13;1.50;;;-0.30;99.90;;;;;;5113138;28;20028;-77
2022/11/22 02:11:21;;;;;;;0.40;0.40;;;-0.30;99.90;;;;;;5114596;28;20036;-77
2022/11/22 02:13:49;;;;;;;0.40;0.40;;;-0.30;99.90;;;;;;5114581;28;20072;-77
2022/11/22 02:16:15;;;;;;;0.50;0.50;;;-0.40;99.90;;;;;;5114257;28;20035;-77
2022/11/22 02:18:41;;;;;;;1.13;1.13;;;-0.10;99.90;;;;;;5114400;28;20023;-77
2022/11/22 02:21:07;;;;;;;0.40;0.40;;;-0.30;99.90;;;;;;5114266;28;20054;-77
2022/11/22 02:23:39;;;;;;;;;;;-0.30;99.90;;;;;;5112753;28;20078;-77
2022/11/22 02:26:05;;;;;;;0.50;0.50;;;-0.30;99.90;;;;;;5112871;28;20334;-77
2022/11/22 02:28:36;;;;;;;0.40;0.40;;;-0.20;99.90;;;;;;5113988;28;20024;-76
2022/11/22 02:31:01;;;;;;;0.40;0.40;;;-0.30;99.90;;;;;;5112828;28;20023;-76
2022/11/22 02:33:27;;;;;;;0.50;0.50;;;;;;;;;;5113264;28;20038;-77
2022/11/22 02:35:54;;;;;;;0.40;0.40;;;-0.30;99.90;;;;;;5113355;28;20031;-77
2022/11/22 02:38:25;;;;;;;0.40;0.40;;;-0.70;99.90;;;;;;5113937;28;20038;-77
2022/11/22 02:40:55;;;;;;;0.65;0.65;;;-0.50;99.90;;;;;;5111853;28;20024;-77
2022/11/22 02:43:25;;;;;;;1.58;1.48;;;-0.50;99.90;;;;;;5114206;28;20035;-77
2022/11/22 02:45:51;;;;;;;0.50;0.50;;;-0.50;99.90;;;;;;5113721;28;20419;-77
2022/11/22 02:48:17;;;;;;;0.47;0.47;;;-0.50;99.90;;;;;;5114063;28;20019;-77
2022/11/22 02:50:44;;;;;;;1.45;1.25;;;-0.50;99.90;;;;;;5112164;28;20139;-77
2022/11/22 02:53:10;;;;;;;;;;;-0.50;99.90;;;;;;5113637;28;20432;-78
2022/11/22 02:55:36;;;;;;;0.30;0.30;;;-0.60;99.90;;;;;;5113027;28;19919;-76
2022/11/22 02:58:04;;;;;;;0.80;0.80;;;;;;;;;;5112224;28;20118;-77
2022/11/22 03:00:34;;;;;;;1.15;1.05;;;-0.60;99.90;;;;;;5112115;28;20023;-77
2022/11/22 03:03:00;;;;;;;0.40;0.40;;;-0.60;99.90;;;;;;5114210;28;20032;-77
2022/11/22 03:05:26;;;;;;;0.50;0.50;;;0.50;99.90;;;;;;5112848;28;20028;-77
2022/11/22 03:07:51;;;;;;;0.40;0.40;;;-0.50;99.90;;;;;;5113818;27;20463;-77
2022/11/22 03:10:17;;;;;;;0.40;0.40;;;-0.50;99.90;;;;;;5112963;28;20027;-76
2022/11/22 03:12:43;;;;;;;0.40;0.40;;;-0.50;99.90;;;;;;5113222;28;20038;-76
2022/11/22 03:15:09;;;;;;;0.40;0.40;;;-0.50;99.90;;;;;;5111511;28;20032;-77
2022/11/22 03:17:34;;;;;;;0.40;0.40;;;-0.70;99.90;;;;;;5113633;28;20034;-77
2022/11/22 03:20:00;;;;;;;1.80;1.70;;;-0.70;99.90;;;;;;5113653;28;20560;-77
2022/11/22 03:22:26;;;;;;;0.40;0.40;;;0.10;99.90;;;;;;5111778;28;20127;-76
2022/11/22 03:24:51;;;;;;;0.70;0.70;;;-0.70;99.90;;;;;;5113479;28;20725;-76
2022/11/22 03:27:17;;;;;;;0.40;0.40;;;-0.60;99.90;;;;;;5111530;28;20107;-76
2022/11/22 03:29:42;;;;;;;0.40;0.40;;;-0.60;99.90;;;;;;5112775;28;20038;-76
2022/11/22 03:32:08;;;;;;;1.10;1.10;;;-0.60;99.90;;;;;;5111992;28;20556;-77
2022/11/22 03:34:34;;;;;;;0.40;0.40;;;-0.60;99.90;;;;;;5112934;28;20035;-77
2022/11/22 03:37:00;;;;;;;4.47;3.50;;;-0.60;99.90;;;;;;5113313;28;20020;-77
2022/11/22 03:39:25;;;;;;;0.50;0.50;;;-0.60;99.90;;;;;;5113009;28;20031;-79
2022/11/22 03:41:51;;;;;;;0.40;0.40;;;-0.60;99.90;;;;;;5111461;28;20279;-78
2022/11/22 03:44:16;;;;;;;0.43;0.43;;;-0.80;99.90;;;;;;5110976;28;20508;-77
2022/11/22 03:46:42;;;;;;;0.50;0.50;;;-0.70;99.90;;;;;;5111556;28;20106;-77
2022/11/22 03:49:09;;;;;;;0.70;0.70;;;-0.80;99.90;;;;;;5112978;28;20379;-76
2022/11/22 03:51:35;;;;;;;0.90;0.88;;;-0.70;99.90;;;;;;5112956;28;20030;-78
2022/11/22 03:54:00;;;;;;;0.40;0.40;;;-0.70;99.90;;;;;;5113121;28;20035;-77
2022/11/22 03:56:26;;;;;;;1.03;1.03;;;-0.70;99.90;;;;;;5112865;28;20027;-77
2022/11/22 03:58:51;;;;;;;0.50;0.50;;;0.60;99.90;;;;;;5112637;28;20449;-79
2022/11/22 04:01:17;;;;;;;0.50;0.50;;;-0.80;99.90;;;;;;5111716;28;20066;-77
2022/11/22 04:03:43;;;;;;;0.60;0.60;;;-0.70;99.90;;;;;;5112618;28;20435;-76
2022/11/22 04:06:08;;;;;;;0.40;0.40;;;-0.70;99.90;;;;;;5112820;28;20493;-77
2022/11/22 04:08:34;;;;;;;0.40;0.40;;;-0.80;99.90;;;;;;5111519;28;20378;-77
2022/11/22 04:10:59;;;;;;;0.87;0.87;;;-0.80;99.90;;;;;;5113239;28;20027;-78
2022/11/22 04:15:05;;;;;;;0.60;0.60;;;-0.80;99.90;;;;;;5112145;28;20027;-78
2022/11/22 04:16:11;;;;;;;0.40;0.40;;;-0.60;99.90;;;;;;5113116;28;20035;-77
2022/11/22 04:18:37;;;;;;;0.40;0.40;;;;;;;;;;5113367;28;20419;-78
2022/11/22 04:25:12;;;;;;;0.40;0.40;;;-0.80;99.90;;;;;;5112892;28;20123;-76
2022/11/22 04:26:32;;;;;;;1.00;1.00;;;-0.80;99.90;;;;;;5112498;28;20059;-77
2022/11/22 04:28:58;;;;;;;0.50;0.50;;;-0.80;99.90;;;;;;5111018;28;20032;-77
2022/11/22 04:34:08;;;;;;;0.40;0.40;;;-0.80;99.90;;;;;;5112317;28;20059;-77
2022/11/22 04:36:33;;;;;;;0.50;0.50;;;-0.80;99.90;;;;;;5111510;28;20019;-78
2022/11/22 04:38:59;;;;;;;0.30;0.30;;;-0.70;99.90;;;;;;5111032;28;20059;-77
2022/11/22 04:41:24;;;;;;;1.90;1.43;;;-0.90;99.90;;;;;;5112485;28;20258;-77
2022/11/22 04:46:34;;;;;;;0.40;0.40;;;-0.80;99.90;;;;;;5112941;28;20093;-78
2022/11/22 04:48:59;;;;;;;0.87;0.87;;;-0.90;99.90;;;;;;5111983;28;20039;-77
2022/11/22 04:54:09;;;;;;;0.82;0.82;;;-0.80;99.90;;;;;;5113378;28;20037;-77
2022/11/22 04:56:35;;;;;;;0.43;0.43;;;-0.80;99.90;;;;;;5111815;28;20027;-77
2022/11/22 04:59:00;;;;;;;0.40;0.40;;;-0.70;99.90;;;;;;5110203;28;20084;-78
2022/11/22 05:01:26;;;;;;;0.60;0.60;;;;;;;;;;5109959;28;20142;-77
2022/11/22 05:03:52;;;;;;;0.40;0.40;;;-0.70;99.90;;;;;;5112217;28;20225;-78
2022/11/22 05:06:18;;;;;;;0.50;0.50;;;;;;;;;;5111897;28;20455;-76
2022/11/22 05:08:44;;;;;;;0.65;0.65;;;;;;;;;;5111769;28;20463;-76
2022/11/22 05:11:12;;;;;;;0.70;0.70;;;-0.80;99.90;;;;;;5110283;28;20076;-77
2022/11/22 05:13:41;;;;;;;0.95;0.88;;;-0.80;99.90;;;;;;5109790;28;20042;-77
2022/11/22 05:16:13;;;;;;;0.60;0.60;;;-0.90;99.90;;;;;;5111568;28;20051;-78
2022/11/22 05:18:39;;;;;;;0.88;0.88;;;-0.80;99.90;;;;;;5111617;28;20522;-78
2022/11/22 05:21:07;;;;;;;0.40;0.40;;;-0.80;99.90;;;;;;5110894;28;20115;-76
2022/11/22 05:26:18;;;;;;;0.45;0.45;;;-0.70;99.90;;;;;;5111159;28;20085;-77
2022/11/22 05:28:43;;;;;;;0.50;0.50;;;-0.80;99.90;;;;;;5111296;28;20036;-77
2022/11/22 05:31:15;;;;;;;0.30;0.30;;;-0.80;99.90;;;;;;5109047;28;20038;-78
2022/11/22 05:33:43;;;;;;;0.40;0.40;;;-0.80;99.90;;;;;;5106197;28;20036;-77
2022/11/22 05:36:09;;;;;;;0.63;0.63;;;-0.80;99.90;;;;;;5094261;28;20208;-79
2022/11/22 05:38:36;;;;;;;0.50;0.50;;;-0.90;99.90;;;;;;5109666;28;20046;-78
2022/11/22 05:41:07;;;;;;;0.50;0.50;;;-1.10;99.90;;;;;;5109621;28;20501;-77
2022/11/22 05:43:33;;;;;;;1.05;1.05;;;;;;;;;;5110516;28;20495;-78
2022/11/22 05:46:10;;;;;;;0.70;0.70;;;-0.70;99.90;;;;;;5110903;28;20489;-78
2022/11/22 05:48:37;;;;;;;2.65;2.45;;;-0.70;99.90;;;;;;5110475;28;20031;-77
2022/11/22 05:51:10;;;;;;;0.30;0.30;;;-0.60;99.90;;;;;;5110691;28;20489;-78
2022/11/22 05:53:36;;;;;;;0.40;0.40;;;-0.80;99.90;;;;;;5109379;28;20402;-77
2022/11/22 05:56:14;;;;;;;0.40;0.40;;;-0.80;99.90;;;;;;5110839;28;20034;-78
2022/11/22 05:58:40;;;;;;;0.52;0.52;;;-0.70;99.90;;;;;;5110735;28;20111;-77
2022/11/22 06:01:11;;;;;;;0.40;0.40;;;0.40;99.90;;;;;;5108778;28;20027;-77
2022/11/22 06:03:37;;;;;;;0.52;0.52;;;0.10;99.90;;;;;;5109346;28;20398;-78
2022/11/22 06:06:04;;;;;;;0.60;0.60;;;-0.80;99.90;;;;;;5109051;28;20020;-77
2022/11/22 06:08:31;;;;;;;0.98;0.98;;;-1.00;99.90;;;;;;5109249;28;20071;-77
2022/11/22 06:11:16;;;;;;;1.20;1.20;;;-0.80;99.90;;;;;;5115025;28;20057;-76
2022/11/22 06:13:43;;;;;;;0.40;0.40;;;-0.60;99.90;;;;;;5092675;28;20122;-77
2022/11/22 06:16:09;;;;;;;0.40;0.40;;;-0.60;99.90;;;;;;5092153;28;20085;-69
2022/11/22 06:18:36;;;;;;;;;;;-0.60;99.90;;;;;;5093475;28;20047;-69
2022/11/22 06:21:15;;;;;;;0.40;0.40;;;-0.70;99.90;;;;;;5104128;28;19965;-69
2022/11/22 06:23:41;;;;;;;0.40;0.40;;;-0.50;99.90;;;;;;5113691;28;20042;-69
2022/11/22 06:26:10;;;;;;;0.40;0.40;;;0.00;99.90;;;;;;5114133;28;20035;-68
2022/11/22 06:28:37;;;;;;;1.02;1.02;;;-0.50;99.90;;;;;;5114130;28;20367;-68
2022/11/22 06:31:14;;;;;;;1.15;1.13;;;-0.50;99.90;;;;;;5114148;27;20016;-69
2022/11/22 06:33:40;;;;;;;;;;;-0.60;99.90;;;;;;5114849;28;20455;-69
2022/11/22 06:36:11;;;;;;;0.73;0.73;;;-0.50;99.90;;;;;;5114419;28;19910;-70
2022/11/22 06:38:38;;;;;;;0.75;0.75;;;-0.60;99.90;;;;;;5114502;28;20074;-67
2022/11/22 06:41:06;;;;;;;0.40;0.40;;;-0.50;99.90;;;;;;5113790;28;20020;-68
2022/11/22 06:43:33;;;;;;;0.40;0.40;;;-0.70;99.90;;;;;;5114403;28;20039;-68
2022/11/22 06:46:00;;;;;;;1.08;1.05;;;-0.50;99.90;;;;;;5107181;28;20016;-68
2022/11/22 06:48:29;;;;;;;2.00;1.60;;;-0.50;99.90;;;;;;5105495;28;20043;-68
2022/11/22 06:51:19;;;;;;;1.38;1.30;;;-0.60;99.90;;;;;;5113830;28;20024;-69
2022/11/22 06:53:46;;;;;;;0.88;0.88;;;-0.60;99.90;;;;;;5114161;28;20027;-69
2022/11/22 06:56:23;;;;;;;0.40;0.40;;;-0.70;99.90;;;;;;5114288;28;20026;-70
2022/11/22 06:58:50;;;;;;;0.40;0.40;;;-0.70;99.90;;;;;;5114488;28;20135;-69
2022/11/22 07:01:21;;;;;;;0.30;0.30;;;-0.70;99.90;;;;;;5114014;27;20035;-69
2022/11/22 07:03:47;;;;;;;1.05;1.05;;;-0.90;99.90;;;;;;5114759;28;20032;-68
2022/11/22 07:06:14;;;;;;;1.30;1.30;;;-0.70;99.90;;;;;;5112665;28;20034;-68
2022/11/22 07:08:42;;;;;;;1.00;1.00;;;-0.70;99.90;;;;;;5114292;28;20031;-68
2022/11/22 07:11:13;;;;;;;0.85;0.85;;;-0.60;99.90;;;;;;5111974;28;20039;-69
2022/11/22 07:13:39;;;;;;;0.40;0.40;;;-0.70;99.90;;;;;;5114320;28;20432;-69
2022/11/22 07:16:07;;;;;;;0.40;0.40;;;-0.60;99.90;;;;;;5113678;28;20024;-68
2022/11/22 07:18:33;;;;;;;1.58;1.48;;;-0.70;99.90;;;;;;5113141;28;20054;-69
2022/11/22 07:21:05;;;;;;;6.15;3.40;;;-0.60;99.90;;;;;;5112909;28;20035;-68
2022/11/22 07:23:31;;;;;;;0.50;0.50;;;-0.70;99.90;;;;;;5111380;28;20047;-69
2022/11/22 07:25:57;;;;;;;0.40;0.40;;;-0.50;99.90;;;;;;5112676;28;20050;-68
2022/11/22 07:28:24;;;;;;;0.40;0.40;;;-0.50;99.90;;;;;;5113165;28;20063;-69
2022/11/22 07:30:50;;;;;;;0.40;0.40;;;-0.40;99.90;;;;;;5110735;28;20034;-67
2022/11/22 07:33:15;;;;;;;0.50;0.50;;;-0.30;99.90;;;;;;5111045;28;20027;-68
2022/11/22 07:35:42;;;;;;;0.50;0.50;;;;;;;;;;5112805;28;20356;-68
2022/11/22 07:38:07;;;;;;;0.43;0.43;;;-0.30;99.90;;;;;;5112748;28;20048;-69
2022/11/22 07:40:33;;;;;;;0.50;0.50;;;;;;;;;;5111605;28;20043;-69
2022/11/22 07:42:59;;;;;;;1.95;1.85;;;-0.10;99.90;;;;;;5111706;28;20486;-68
2022/11/22 07:45:25;;;;;;;0.40;0.40;;;-0.30;99.90;;;;;;5113237;28;20031;-69
2022/11/22 07:47:50;;;;;;;1.70;1.60;;;-0.30;99.90;;;;;;5113277;27;20027;-69
2022/11/22 07:50:16;;;;;;;0.70;0.70;;;-0.30;99.90;;;;;;5113397;28;20804;-70
2022/11/22 07:52:42;;;;;;;0.40;0.40;;;-0.50;99.90;;;;;;5113230;28;20098;-69
2022/11/22 07:55:08;;;;;;;0.77;0.77;;;-0.40;99.90;;;;;;5112941;28;20036;-69
2022/11/22 07:57:33;;;;;;;0.55;0.55;;;-0.30;99.90;;;;;;5112953;28;20032;-69
2022/11/22 07:59:59;;;;;;;1.07;1.07;;;-0.40;99.90;;;;;;5112990;28;20050;-69
2022/11/22 08:02:25;;;;;;;0.53;0.53;;;0.70;99.90;;;;;;5112628;28;20035;-68
2022/11/22 08:04:51;;;;;;;0.40;0.40;;;;;;;;;;5112036;28;20485;-69
2022/11/22 08:07:17;;;;;;;1.40;1.40;;;-0.10;99.90;;;;;;5111848;28;20019;-68
2022/11/22 08:09:43;;;;;;;1.07;0.97;;;0.00;99.90;;;;;;5112153;28;20126;-69
2022/11/22 08:12:09;;;;;;;0.50;0.50;;;0.00;99.90;;;;;;5111111;28;20062;-68
2022/11/22 08:14:35;;;;;;;0.50;0.50;;;;;;;;;;5112090;28;20043;-68
2022/11/22 08:17:00;;;;;;;0.77;0.77;;;-0.10;99.90;;;;;;5111919;28;20024;-68
2022/11/22 08:19:26;;;;;;;0.40;0.40;;;;;;;;;;5111849;28;20344;-68
2022/11/22 08:21:52;;;;;;;1.50;1.40;;;-0.30;99.90;;;;;;5110958;28;20106;-69
2022/11/22 08:24:18;;;;;;;0.40;0.40;;;-0.30;99.90;;;;;;5112336;28;20445;-68
2022/11/22 08:26:44;;;;;;;2.45;2.03;;;-0.20;99.90;;;;;;5110921;28;20020;-68
2022/11/22 08:29:11;;;;;;;0.50;0.50;;;-0.10;99.90;;;;;;5111025;28;20081;-69
2022/11/22 08:31:38;;;;;;;0.50;0.50;;;0.00;99.90;;;;;;5110858;28;20030;-67
2022/11/22 08:34:05;;;;;;;0.40;0.40;;;0.00;99.90;;;;;;5110845;28;20031;-68
2022/11/22 08:36:30;;;;;;;;;;;0.00;99.90;;;;;;5110917;28;20027;-68
2022/11/22 08:38:56;;;;;;;0.70;0.70;;;0.10;99.90;;;;;;5111292;28;19912;-68
2022/11/22 08:41:22;;;;;;;0.50;0.50;;;0.10;99.90;;;;;;5111072;28;20028;-68
2022/11/22 08:43:52;;;;;;;1.98;1.38;;;0.00;99.90;;;;;;5112127;28;20028;-68
2022/11/22 08:46:18;;;;;;;1.30;1.20;;;0.00;99.90;;;;;;5110847;28;20058;-67
2022/11/22 08:48:44;;;;;;;0.40;0.40;;;0.20;99.90;;;;;;5109543;28;20358;-66
2022/11/22 08:51:12;;;;;;;0.73;0.73;;;0.20;99.90;;;;;;5111595;28;20031;-66
2022/11/22 08:53:41;;;;;;;0.82;0.82;;;0.10;99.90;;;;;;5112413;28;20079;-66
2022/11/22 08:56:10;;;;;;;0.40;0.40;;;0.20;99.90;;;;;;5110897;28;20114;-66
2022/11/22 08:58:36;;;;;;;0.35;0.35;;;0.30;99.90;;;;;;5111205;28;20106;-67
2022/11/22 09:01:04;;;;;;;0.82;0.82;;;0.30;99.90;;;;;;5112391;28;20106;-66
2022/11/22 09:03:30;;;;;;;0.40;0.40;;;;;;;;;;5110367;28;20036;-68
2022/11/22 09:06:05;;;;;;;0.45;0.45;;;0.20;99.90;;;;;;5112478;28;20028;-67
2022/11/22 09:08:31;;;;;;;0.30;0.30;;;0.20;99.90;;;;;;5112744;28;20032;-66
2022/11/22 09:11:06;;;;;;;0.40;0.40;;;0.20;99.90;;;;;;5111454;28;20036;-66
2022/11/22 09:13:33;;;;;;;0.30;0.30;;;0.30;99.90;;;;;;5111466;28;20036;-67
2022/11/22 09:16:04;;;;;;;0.50;0.50;;;0.20;99.90;;;;;;5112162;28;20073;-67
2022/11/22 09:18:30;;;;;;;0.38;0.38;;;0.20;99.90;;;;;;5111506;28;20031;-66
2022/11/22 09:21:06;;;;;;;0.40;0.40;;;0.30;99.90;;;;;;5110692;28;20085;-67
2022/11/22 09:23:33;;;;;;;0.40;0.40;;;0.30;99.90;;;;;;5107527;28;20043;-68
2022/11/22 09:26:04;;;;;;;0.30;0.30;;;0.30;99.90;;;;;;5090084;28;20016;-66
2022/11/22 09:28:30;;;;;;;0.40;0.40;;;0.20;99.90;;;;;;5101231;28;20591;-67
2022/11/22 09:31:02;;;;;;;0.50;0.50;;;-0.20;99.90;;;;;;5110507;28;20085;-65
2022/11/22 09:33:29;;;;;;;0.40;0.40;;;0.30;99.90;;;;;;5102658;28;20111;-65
2022/11/22 09:36:01;;;;;;;;;;;0.30;99.90;;;;;;5102336;28;20610;-68
2022/11/22 09:38:28;;;;;;;0.50;0.50;;;0.30;99.90;;;;;;5110734;28;20014;-69
2022/11/22 09:40:54;;;;;;;0.40;0.40;;;0.10;99.90;;;;;;5108460;28;20036;-68
2022/11/22 09:43:56;;;;;;;0.93;0.93;;;0.20;99.90;;;;;;5109975;28;20106;-70
2022/11/22 09:46:25;;;;;;;0.30;0.30;;;0.10;99.90;;;;;;5114351;28;20062;-68
2022/11/22 09:49:23;;;;;;;0.40;0.40;;;0.00;99.90;;;;;;5095118;28;20119;-68
2022/11/22 09:52:08;;;;;;;0.40;0.40;;;0.10;99.90;;;;;;5086374;28;20054;-68
2022/11/22 09:54:53;;;;;;;0.93;0.93;;;0.60;99.90;;;;;;5110975;28;20053;-68
2022/11/22 09:57:27;;;;;;;0.35;0.35;;;0.10;99.90;;;;;;5112891;28;20028;-69
2022/11/22 10:00:02;;;;;;;0.40;0.40;;;0.20;99.90;;;;;;5111907;28;20031;-69
2022/11/22 10:02:42;;;;;;;0.40;0.40;;;0.10;99.90;;;;;;5112580;28;20133;-69
2022/11/22 10:05:23;;;;;;;0.30;0.30;;;0.30;99.90;;;;;;5107916;28;20059;-67
2022/11/22 10:08:02;;;;;;;1.02;1.02;;;0.70;99.90;;;;;;5111981;28;20390;-67
2022/11/22 10:10:34;;;;;;;1.02;1.02;;;0.40;99.90;;;;;;5104888;28;20518;-66
2022/11/22 10:13:12;;;;;;;0.50;0.50;;;0.40;99.90;;;;;;5105325;28;20442;-66
2022/11/22 10:15:48;;;;;;;1.25;1.15;;;0.40;99.90;;;;;;5105447;28;20030;-68
2022/11/22 10:18:30;;;;;;;0.93;0.93;;;0.50;99.90;;;;;;5103119;28;20493;-66
2022/11/22 10:20:55;;;;;;;0.40;0.40;;;0.50;99.90;;;;;;5106112;28;20451;-66
2022/11/22 10:23:23;;;;;;;0.40;0.40;;;0.50;99.90;;;;;;5108720;28;20035;-68
2022/11/22 10:26:04;;;;;;;0.50;0.50;;;0.40;99.90;;;;;;5107081;28;20123;-68
2022/11/22 10:28:34;;;;;;;0.40;0.40;;;0.40;99.90;;;;;;5098315;28;20036;-68
2022/11/22 10:31:15;;;;;;;0.32;0.32;;;0.40;99.90;;;;;;5110175;28;20073;-67
2022/11/22 10:33:59;;;;;;;0.95;0.95;;;0.40;99.90;;;;;;5108375;28;20065;-67
2022/11/22 10:36:37;;;;;;;1.45;1.38;;;0.40;99.90;;;;;;5112009;28;20062;-67
2022/11/22 10:39:29;;;;;;;0.30;0.30;;;0.40;99.90;;;;;;5102141;28;20039;-67
2022/11/22 10:42:16;;;;;;;0.30;0.30;;;0.40;99.90;;;;;;5108611;27;20439;-69
2022/11/22 10:45:22;;;;;;;1.48;1.40;;;0.40;99.90;;;;;;5106785;28;20928;-69
2022/11/22 10:48:08;;;;;;;0.52;0.52;;;0.30;99.90;;;;;;5107393;28;20024;-69
2022/11/22 10:51:02;;;;;;;1.95;1.85;;;0.20;99.90;;;;;;5105185;28;20128;-70
2022/11/22 10:54:05;;;;;;;1.08;1.08;;;0.20;99.90;;;;;;5096998;28;20118;-71
2022/11/22 10:56:37;;;;;;;0.65;0.65;;;0.30;99.90;;;;;;5100086;28;20023;-70
2022/11/22 10:59:24;;;;;;;0.73;0.73;;;0.40;99.90;;;;;;5110764;28;20080;-69
2022/11/22 11:02:31;;;;;;;0.50;0.50;;;0.60;99.90;;;;;;5101959;28;20032;-66
2022/11/22 11:04:59;;;;;;;0.50;0.50;;;0.50;99.90;;;;;;5039362;28;20473;-67
2022/11/22 11:07:26;;;;;;;0.40;0.40;;;0.60;99.90;;;;;;5040462;28;20025;-66
2022/11/22 11:09:55;;;;;;;0.50;0.50;;;0.70;99.90;;;;;;5075701;28;20084;-67
2022/11/22 11:12:28;;;;;;;3.00;1.85;;;0.70;99.90;;;;;;5103674;28;20458;-67
2022/11/22 11:15:00;;;;;;;0.40;0.40;;;0.70;99.90;;;;;;5091402;28;20426;-66
2022/11/22 11:17:28;;;;;;;0.60;0.60;;;0.70;99.90;;;;;;5111351;28;20584;-65
2022/11/22 11:19:58;;;;;;;0.40;0.40;;;0.60;99.90;;;;;;5097185;28;20103;-66
2022/11/22 11:22:25;;;;;;;0.40;0.40;;;0.60;99.90;;;;;;5100362;28;20038;-68
2022/11/22 11:24:51;;;;;;;0.75;0.75;;;0.60;99.90;;;;;;5103709;28;20020;-67
2022/11/22 11:27:19;;;;;;;0.50;0.50;;;0.50;99.90;;;;;;5104057;28;20035;-67
2022/11/22 11:30:03;;;;;;;0.73;0.73;;;0.30;99.90;;;;;;5110943;28;20118;-67
2022/11/22 11:32:51;;;;;;;0.98;0.98;;;0.60;99.90;;;;;;5095489;28;20024;-66
2022/11/22 11:35:18;;;;;;;0.40;0.40;;;0.60;99.90;;;;;;5104641;28;20035;-65
2022/11/22 11:37:44;;;;;;;0.70;0.70;;;0.60;99.90;;;;;;5100807;28;20398;-68
2022/11/22 11:40:45;;;;;;;1.03;1.03;;;0.60;99.90;;;;;;5107488;28;20036;-66
2022/11/22 11:43:21;;;;;;;0.70;0.70;;;0.50;99.90;;;;;;5093114;28;20043;-67
2022/11/22 11:45:48;;;;;;;0.60;0.60;;;0.60;99.90;;;;;;5107718;28;20046;-65
2022/11/22 11:48:27;;;;;;;0.40;0.40;;;0.60;99.90;;;;;;5099367;28;20035;-70
2022/11/22 11:51:20;;;;;;;1.38;1.27;;;0.70;99.90;;;;;;5107175;28;20032;-70
2022/11/22 11:54:09;;;;;;;1.85;1.75;;;0.60;99.90;;;;;;5106686;28;20110;-69
2022/11/22 11:56:50;;;;;;;1.10;1.10;;;1.90;99.90;;;;;;5101139;28;20050;-69
2022/11/22 11:59:21;;;;;;;0.40;0.40;;;0.70;99.90;;;;;;5108812;28;20039;-69
2022/11/22 12:02:13;;;;;;;0.40;0.40;;;0.50;99.90;;;;;;5105167;28;20036;-70
2022/11/22 12:05:07;;;;;;;0.47;0.47;;;0.60;99.90;;;;;;5048493;28;20033;-72
2022/11/22 12:07:33;;;;;;;0.40;0.40;;;0.50;99.90;;;;;;5100249;28;20375;-70
2022/11/22 12:09:58;;;;;;;0.40;0.40;;;0.50;99.90;;;;;;5108160;28;20020;-70
2022/11/22 12:12:47;;;;;;;0.50;0.50;;;0.70;99.90;;;;;;5104656;28;20020;-71
2022/11/22 12:15:26;;;;;;;0.73;0.73;;;0.70;99.90;;;;;;5103122;28;20032;-72
2022/11/22 12:17:54;;;;;;;0.40;0.40;;;0.70;99.90;;;;;;5108408;28;20442;-69
2022/11/22 12:20:40;;;;;;;1.25;1.25;;;0.70;99.90;;;;;;5107631;28;20035;-70
2022/11/22 12:23:19;;;;;;;0.60;0.60;;;0.60;99.90;;;;;;5105875;28;20024;-70
2022/11/22 12:25:46;;;;;;;0.40;0.40;;;0.50;99.90;;;;;;5100099;28;20035;-72
2022/11/22 12:28:21;;;;;;;0.77;0.77;;;0.40;99.90;;;;;;5097626;28;20172;-70
2022/11/22 12:30:59;;;;;;;0.50;0.50;;;0.20;99.90;;;;;;5102158;28;20031;-69
2022/11/22 12:34:08;;;;;;;0.50;0.50;;;0.40;99.90;;;;;;5096854;28;20109;-66
2022/11/22 12:36:52;;;;;;;;;;;0.40;99.90;;;;;;5088094;28;20047;-67
2022/11/22 12:39:23;;;;;;;0.40;0.40;;;0.30;99.90;;;;;;5102500;28;19916;-67
2022/11/22 12:42:03;;;;;;;0.40;0.40;;;0.30;99.90;;;;;;5107681;28;20037;-69
2022/11/22 12:44:37;;;;;;;0.40;0.40;;;0.30;99.90;;;;;;5103515;28;20316;-70
2022/11/22 12:47:12;;;;;;;0.50;0.50;;;0.30;99.90;;;;;;5106415;28;20042;-69
2022/11/22 12:49:45;;;;;;;0.50;0.50;;;0.30;99.90;;;;;;5106159;28;20051;-70
2022/11/22 12:52:31;;;;;;;0.60;0.60;;;0.40;99.90;;;;;;5100856;28;20070;-67
2022/11/22 12:55:03;;;;;;;3.15;2.95;;;0.40;99.90;;;;;;5106077;28;20127;-68
2022/11/22 12:57:53;;;;;;;0.85;0.85;;;0.40;99.90;;;;;;5100628;28;20031;-69
2022/11/22 13:00:23;;;;;;;0.80;0.80;;;0.40;99.90;;;;;;5104970;28;20036;-70
2022/11/22 13:02:55;;;;;;;0.57;0.57;;;0.40;99.90;;;;;;5109212;28;20097;-68
2022/11/22 13:05:24;;;;;;;0.85;0.85;;;0.30;99.90;;;;;;5104948;28;20364;-69
2022/11/22 13:08:15;;;;;;;0.63;0.63;;;0.40;99.90;;;;;;5104142;28;20023;-68
2022/11/22 13:10:49;;;;;;;0.50;0.50;;;0.40;99.90;;;;;;5110296;28;20024;-71
2022/11/22 13:13:32;;;;;;;5.82;3.08;;;0.40;99.90;;;;;;5093981;28;20027;-72
2022/11/22 13:16:02;;;;;;;0.30;0.30;;;0.30;99.90;;;;;;5106626;28;20028;-72
2022/11/22 13:18:33;;;;;;;0.50;0.50;;;0.20;99.90;;;;;;5107133;28;20346;-72
2022/11/22 13:20:58;;;;;;;0.50;0.50;;;0.20;99.90;;;;;;5112752;28;20039;-70
2022/11/22 13:23:46;;;;;;;0.40;0.40;;;0.30;99.90;;;;;;5109475;28;20032;-68
2022/11/22 13:26:20;;;;;;;;;;;0.20;99.90;;;;;;5105619;28;20053;-65
2022/11/22 13:28:47;;;;;;;0.50;0.50;;;0.30;99.90;;;;;;5112464;28;19958;-72
2022/11/22 13:31:17;;;;;;;1.90;1.75;;;0.30;99.90;;;;;;5114564;28;20046;-68